createdAt,value
2017-03-05T00:00:16.430Z,10.3
2017-03-05T00:02:21.790Z,10.1
2017-03-05T00:03:24.825Z,10
2017-03-05T00:04:27.284Z,10.1
2017-03-05T00:05:29.734Z,10.1
2017-03-05T00:06:32.680Z,10.1
2017-03-05T00:07:35.126Z,10
2017-03-05T00:08:38.328Z,10.1
2017-03-05T00:09:40.778Z,10.1
2017-03-05T00:10:43.753Z,10
2017-03-05T00:12:48.630Z,10
2017-03-05T00:13:51.353Z,10
2017-03-05T00:14:53.805Z,10
2017-03-05T00:15:57.285Z,10
2017-03-05T00:16:59.240Z,10
2017-03-05T00:18:01.686Z,10
2017-03-05T00:19:04.952Z,10
2017-03-05T00:20:07.237Z,10
2017-03-05T00:21:09.679Z,10
2017-03-05T00:22:12.461Z,10
2017-03-05T00:23:14.913Z,10
2017-03-05T00:24:18.008Z,10.1
2017-03-05T00:25:20.482Z,10
2017-03-05T00:26:22.760Z,9.9
2017-03-05T00:27:25.721Z,10
2017-03-05T00:28:28.697Z,10
2017-03-05T00:29:31.416Z,10
2017-03-05T00:30:33.904Z,10
2017-03-05T00:31:36.357Z,9.9
2017-03-05T00:32:39.312Z,9.9
2017-03-05T00:33:41.779Z,9.9
2017-03-05T00:34:44.475Z,10
2017-03-05T00:35:46.921Z,9.9
2017-03-05T00:36:49.872Z,9.8
2017-03-05T00:37:52.335Z,9.8
2017-03-05T00:38:54.793Z,9.8
2017-03-05T00:39:58.044Z,9.8
2017-03-05T00:41:00.500Z,9.8
2017-03-05T00:42:02.949Z,9.8
2017-03-05T00:43:05.416Z,9.8
2017-03-05T00:44:08.201Z,9.8
2017-03-05T00:45:11.117Z,9.7
2017-03-05T00:46:13.417Z,9.8
2017-03-05T00:47:16.727Z,9.8
2017-03-05T00:48:18.691Z,9.8
2017-03-05T00:49:21.651Z,9.7
2017-03-05T00:50:24.874Z,9.8
2017-03-05T00:51:26.820Z,9.8
2017-03-05T00:52:29.124Z,9.7
2017-03-05T00:53:31.913Z,9.8
2017-03-05T00:54:34.898Z,9.8
2017-03-05T00:55:37.617Z,9.6
2017-03-05T00:56:40.076Z,9.6
2017-03-05T00:57:42.564Z,9.6
2017-03-05T00:58:46.045Z,9.7
2017-03-05T00:59:48.013Z,9.8
2017-03-05T01:00:50.714Z,9.8
2017-03-05T01:01:53.161Z,9.8
2017-03-05T01:02:55.773Z,9.7
2017-03-05T01:03:59.250Z,9.7
2017-03-05T01:05:01.202Z,9.7
2017-03-05T01:06:04.409Z,9.7
2017-03-05T01:07:06.362Z,9.7
2017-03-05T01:08:09.327Z,9.7
2017-03-05T01:09:11.773Z,9.8
2017-03-05T01:10:14.732Z,9.8
2017-03-05T01:11:17.282Z,9.7
2017-03-05T01:12:19.765Z,9.7
2017-03-05T01:13:22.556Z,9.7
2017-03-05T01:14:25.008Z,9.6
2017-03-05T01:15:27.962Z,9.6
2017-03-05T01:16:31.196Z,9.7
2017-03-05T01:17:33.143Z,9.7
2017-03-05T01:18:36.106Z,9.7
2017-03-05T01:19:38.568Z,9.6
2017-03-05T01:20:41.049Z,9.6
2017-03-05T01:21:43.753Z,9.7
2017-03-05T01:23:49.136Z,9.7
2017-03-05T01:24:51.590Z,9.7
2017-03-05T01:25:54.236Z,9.7
2017-03-05T01:26:57.002Z,9.7
2017-03-05T01:27:59.450Z,9.7
2017-03-05T01:29:02.429Z,9.8
2017-03-05T01:30:04.909Z,9.7
2017-03-05T01:31:07.356Z,9.7
2017-03-05T01:32:10.595Z,9.7
2017-03-05T01:34:15.127Z,9.6
2017-03-05T01:35:17.591Z,9.6
2017-03-05T01:36:20.557Z,9.6
2017-03-05T01:37:23.640Z,9.6
2017-03-05T01:38:26.095Z,9.7
2017-03-05T01:39:28.580Z,9.6
2017-03-05T01:40:31.528Z,9.6
2017-03-05T01:41:33.975Z,9.6
2017-03-05T01:42:36.693Z,9.6
2017-03-05T01:43:38.997Z,9.7
2017-03-05T01:44:41.984Z,9.6
2017-03-05T01:45:44.439Z,9.7
2017-03-05T01:46:47.388Z,9.7
2017-03-05T01:47:49.770Z,9.7
2017-03-05T01:48:52.733Z,9.7
2017-03-05T01:49:55.208Z,9.6
2017-03-05T01:50:57.655Z,9.6
2017-03-05T01:52:00.615Z,9.6
2017-03-05T01:53:03.321Z,9.6
2017-03-05T01:54:05.776Z,9.6
2017-03-05T01:56:10.964Z,9.6
2017-03-05T01:58:16.621Z,9.6
2017-03-05T01:59:18.912Z,9.6
2017-03-05T02:00:21.378Z,9.6
2017-03-05T02:01:24.334Z,9.6
2017-03-05T02:02:26.614Z,9.6
2017-03-05T02:03:29.861Z,9.6
2017-03-05T02:04:32.324Z,9.5
2017-03-05T02:05:34.782Z,9.6
2017-03-05T02:06:37.233Z,9.6
2017-03-05T02:07:40.187Z,9.6
2017-03-05T02:08:42.890Z,9.6
2017-03-05T02:09:45.344Z,9.6
2017-03-05T02:10:48.306Z,9.5
2017-03-05T02:11:50.757Z,9.5
2017-03-05T02:12:53.231Z,9.5
2017-03-05T02:13:56.483Z,9.5
2017-03-05T02:14:58.955Z,9.5
2017-03-05T02:16:01.427Z,9.5
2017-03-05T02:17:03.881Z,9.5
2017-03-05T02:18:06.840Z,9.5
2017-03-05T02:19:09.543Z,9.5
2017-03-05T02:20:12.034Z,9.5
2017-03-05T02:21:14.496Z,9.5
2017-03-05T02:22:16.944Z,9.5
2017-03-05T02:23:19.628Z,9.5
2017-03-05T02:24:22.856Z,9.5
2017-03-05T02:25:25.845Z,9.5
2017-03-05T02:26:27.798Z,9.5
2017-03-05T02:27:30.248Z,9.5
2017-03-05T02:28:33.035Z,9.5
2017-03-05T02:29:35.740Z,9.5
2017-03-05T02:30:38.189Z,9.5
2017-03-05T02:31:41.141Z,9.5
2017-03-05T02:32:43.605Z,9.5
2017-03-05T02:33:46.573Z,9.4
2017-03-05T02:34:49.329Z,9.5
2017-03-05T02:35:51.287Z,9.4
2017-03-05T02:36:54.261Z,9.4
2017-03-05T02:37:57.260Z,9.3
2017-03-05T02:38:59.208Z,9.3
2017-03-05T02:40:02.441Z,9.4
2017-03-05T02:41:04.890Z,9.4
2017-03-05T02:42:07.337Z,9.3
2017-03-05T02:43:09.788Z,9.3
2017-03-05T02:44:13.261Z,9.3
2017-03-05T02:45:15.458Z,9.3
2017-03-05T02:46:17.566Z,9.3
2017-03-05T02:47:20.517Z,9.3
2017-03-05T02:48:22.963Z,9.2
2017-03-05T02:49:25.917Z,9.3
2017-03-05T02:50:29.467Z,9.3
2017-03-05T02:51:30.926Z,9.3
2017-03-05T02:52:33.929Z,9.3
2017-03-05T02:53:36.381Z,9.3
2017-03-05T02:54:39.345Z,9.3
2017-03-05T02:55:42.048Z,9.3
2017-03-05T02:56:44.492Z,9.3
2017-03-05T02:57:46.944Z,9.3
2017-03-05T02:58:49.388Z,9.3
2017-03-05T02:59:52.309Z,9.3
2017-03-05T03:00:55.014Z,9.3
2017-03-05T03:01:57.464Z,9.3
2017-03-05T03:02:59.928Z,9.1
2017-03-05T03:04:03.412Z,9.2
2017-03-05T03:05:05.394Z,9.2
2017-03-05T03:06:08.095Z,9.2
2017-03-05T03:07:10.544Z,9.2
2017-03-05T03:08:13.494Z,9.1
2017-03-05T03:09:15.783Z,9.2
2017-03-05T03:10:18.733Z,9.2
2017-03-05T03:11:21.266Z,9.2
2017-03-05T03:12:23.803Z,9.2
2017-03-05T03:13:26.591Z,9.1
2017-03-05T03:14:28.936Z,9.1
2017-03-05T03:15:31.904Z,9.1
2017-03-05T03:16:34.619Z,9.1
2017-03-05T03:17:37.079Z,9
2017-03-05T03:18:39.540Z,9.1
2017-03-05T03:19:42.520Z,9.1
2017-03-05T03:20:44.801Z,9.1
2017-03-05T03:21:48.058Z,9.1
2017-03-05T03:22:50.509Z,9.1
2017-03-05T03:23:52.985Z,9
2017-03-05T03:24:55.432Z,9
2017-03-05T03:25:58.233Z,9
2017-03-05T03:27:00.987Z,9
2017-03-05T03:28:03.436Z,9
2017-03-05T03:29:05.884Z,9.1
2017-03-05T03:30:08.850Z,9
2017-03-05T03:31:11.131Z,9
2017-03-05T03:32:14.406Z,9
2017-03-05T03:33:16.889Z,9
2017-03-05T03:34:19.163Z,9
2017-03-05T03:36:24.529Z,9
2017-03-05T03:37:27.109Z,9
2017-03-05T03:38:30.065Z,9
2017-03-05T03:39:32.521Z,9
2017-03-05T03:40:34.985Z,8.9
2017-03-05T03:41:37.949Z,9
2017-03-05T03:42:40.714Z,8.9
2017-03-05T03:43:43.170Z,8.8
2017-03-05T03:44:45.615Z,8.8
2017-03-05T03:45:48.059Z,8.8
2017-03-05T03:46:51.052Z,8.8
2017-03-05T03:47:53.750Z,8.8
2017-03-05T03:48:56.205Z,8.8
2017-03-05T03:49:58.647Z,8.8
2017-03-05T03:51:01.597Z,8.8
2017-03-05T03:53:06.705Z,8.8
2017-03-05T03:54:09.152Z,8.8
2017-03-05T03:55:12.100Z,8.8
2017-03-05T03:56:14.554Z,8.8
2017-03-05T03:57:17.016Z,8.8
2017-03-05T03:58:20.273Z,8.8
2017-03-05T03:59:22.564Z,8.8
2017-03-05T04:00:25.013Z,8.8
2017-03-05T04:01:27.790Z,8.8
2017-03-05T04:02:30.236Z,8.8
2017-03-05T04:03:33.511Z,8.8
2017-03-05T04:04:35.476Z,8.8
2017-03-05T04:05:38.434Z,8.8
2017-03-05T04:06:40.888Z,8.8
2017-03-05T04:07:43.472Z,8.7
2017-03-05T04:08:46.726Z,8.8
2017-03-05T04:09:48.686Z,8.8
2017-03-05T04:10:51.649Z,8.6
2017-03-05T04:12:56.501Z,8.7
2017-03-05T04:14:00.252Z,8.7
2017-03-05T04:15:02.201Z,8.7
2017-03-05T04:16:04.651Z,8.6
2017-03-05T04:17:07.109Z,8.7
2017-03-05T04:18:10.584Z,8.7
2017-03-05T04:19:13.318Z,8.7
2017-03-05T04:21:17.509Z,8.7
2017-03-05T04:22:20.458Z,8.7
2017-03-05T04:23:22.905Z,8.7
2017-03-05T04:24:26.637Z,8.7
2017-03-05T04:25:28.076Z,8.7
2017-03-05T04:26:31.050Z,8.7
2017-03-05T04:27:33.503Z,8.7
2017-03-05T04:28:35.948Z,8.7
2017-03-05T04:29:39.158Z,8.7
2017-03-05T04:30:41.599Z,8.7
2017-03-05T04:31:44.048Z,8.7
2017-03-05T04:32:46.490Z,8.7
2017-03-05T04:33:49.351Z,8.6
2017-03-05T04:34:52.633Z,8.6
2017-03-05T04:35:54.593Z,8.6
2017-03-05T04:36:57.045Z,8.6
2017-03-05T04:38:00.009Z,8.6
2017-03-05T04:39:03.223Z,8.6
2017-03-05T04:40:05.248Z,8.5
2017-03-05T04:41:07.701Z,8.6
2017-03-05T04:42:10.669Z,8.6
2017-03-05T04:44:15.561Z,8.6
2017-03-05T04:45:19.291Z,8.6
2017-03-05T04:46:21.076Z,8.6
2017-03-05T04:47:23.530Z,8.6
2017-03-05T04:48:26.315Z,8.6
2017-03-05T04:49:28.760Z,8.6
2017-03-05T04:50:32.020Z,8.6
2017-03-05T04:51:33.975Z,8.6
2017-03-05T04:52:36.923Z,8.6
2017-03-05T04:54:42.806Z,8.6
2017-03-05T04:55:45.010Z,8.6
2017-03-05T04:56:47.465Z,8.6
2017-03-05T04:58:52.347Z,8.6
2017-03-05T04:59:55.310Z,8.6
2017-03-05T05:00:58.060Z,8.6
2017-03-05T05:02:00.504Z,8.6
2017-03-05T05:03:02.950Z,8.6
2017-03-05T05:04:05.748Z,8.6
2017-03-05T05:05:08.202Z,8.6
2017-03-05T05:06:11.247Z,8.6
2017-03-05T05:07:13.706Z,8.6
2017-03-05T05:08:16.151Z,8.6
2017-03-05T05:09:19.110Z,8.6
2017-03-05T05:10:21.556Z,8.6
2017-03-05T05:11:24.253Z,8.6
2017-03-05T05:12:26.531Z,8.6
2017-03-05T05:13:29.492Z,8.6
2017-03-05T05:14:31.940Z,8.6
2017-03-05T05:15:34.908Z,8.6
2017-03-05T05:16:37.608Z,8.5
2017-03-05T05:17:40.064Z,8.6
2017-03-05T05:18:42.515Z,8.6
2017-03-05T05:19:46.002Z,8.6
2017-03-05T05:20:48.479Z,8.5
2017-03-05T05:21:50.684Z,8.5
2017-03-05T05:22:53.142Z,8.6
2017-03-05T05:23:55.595Z,8.6
2017-03-05T05:24:58.542Z,8.5
2017-03-05T05:26:00.990Z,8.5
2017-03-05T05:28:06.432Z,8.5
2017-03-05T05:29:08.876Z,8.5
2017-03-05T05:30:12.357Z,8.5
2017-03-05T05:31:14.301Z,8.5
2017-03-05T05:32:16.760Z,8.5
2017-03-05T05:33:19.793Z,8.5
2017-03-05T05:34:22.248Z,8.5
2017-03-05T05:35:24.541Z,8.5
2017-03-05T05:36:27.361Z,8.5
2017-03-05T05:37:30.312Z,8.5
2017-03-05T05:38:33.077Z,8.5
2017-03-05T05:39:35.551Z,8.5
2017-03-05T05:40:37.878Z,8.5
2017-03-05T05:41:40.833Z,8.5
2017-03-05T05:42:43.280Z,8.5
2017-03-05T05:43:45.984Z,8.5
2017-03-05T05:44:48.443Z,8.5
2017-03-05T05:45:51.392Z,8.5
2017-03-05T05:46:53.842Z,8.5
2017-03-05T05:47:56.293Z,8.5
2017-03-05T05:48:59.343Z,8.5
2017-03-05T05:50:01.795Z,8.4
2017-03-05T05:51:04.240Z,8.5
2017-03-05T05:52:07.195Z,8.5
2017-03-05T05:53:09.641Z,8.5
2017-03-05T05:54:12.403Z,8.5
2017-03-05T05:55:14.996Z,8.5
2017-03-05T05:56:17.475Z,8.5
2017-03-05T05:57:19.755Z,8.5
2017-03-05T05:59:25.877Z,8.5
2017-03-05T06:00:27.819Z,8.4
2017-03-05T06:01:30.775Z,8.4
2017-03-05T06:02:33.226Z,8.4
2017-03-05T06:03:36.188Z,8.4
2017-03-05T06:04:38.898Z,8.4
2017-03-05T06:05:41.360Z,8.4
2017-03-05T06:06:43.813Z,8.5
2017-03-05T06:07:46.259Z,8.4
2017-03-05T06:08:49.227Z,8.3
2017-03-05T06:09:51.930Z,8.3
2017-03-05T06:10:54.393Z,8.3
2017-03-05T06:11:56.854Z,8.4
2017-03-05T06:12:59.808Z,8.3
2017-03-05T06:14:02.258Z,8.3
2017-03-05T06:15:04.957Z,8.3
2017-03-05T06:16:07.418Z,8.3
2017-03-05T06:17:10.364Z,8.3
2017-03-05T06:18:13.361Z,8.3
2017-03-05T06:19:15.310Z,8.3
2017-03-05T06:20:18.354Z,8.3
2017-03-05T06:21:20.800Z,8.3
2017-03-05T06:22:23.255Z,8.2
2017-03-05T06:23:26.214Z,8.2
2017-03-05T06:24:28.520Z,8.2
2017-03-05T06:25:31.561Z,8.1
2017-03-05T06:26:34.546Z,8.2
2017-03-05T06:27:36.509Z,8.2
2017-03-05T06:28:38.960Z,8.2
2017-03-05T06:29:41.946Z,8.2
2017-03-05T06:30:44.642Z,8.1
2017-03-05T06:31:47.089Z,8.1
2017-03-05T06:32:49.536Z,8.1
2017-03-05T06:33:52.500Z,8.1
2017-03-05T06:34:55.988Z,8.1
2017-03-05T06:35:57.682Z,8.1
2017-03-05T06:37:00.126Z,8.1
2017-03-05T06:38:03.078Z,8.1
2017-03-05T06:39:05.523Z,8.1
2017-03-05T06:40:07.802Z,8.1
2017-03-05T06:41:11.004Z,8.1
2017-03-05T06:42:13.459Z,8.1
2017-03-05T06:43:15.905Z,8.1
2017-03-05T06:45:21.815Z,8.1
2017-03-05T06:46:24.030Z,8.1
2017-03-05T06:47:26.488Z,8.1
2017-03-05T06:48:28.933Z,8.1
2017-03-05T06:50:34.302Z,8.1
2017-03-05T06:51:37.349Z,8.1
2017-03-05T06:52:39.819Z,8.1
2017-03-05T06:53:42.265Z,8.1
2017-03-05T06:54:45.218Z,8.1
2017-03-05T06:55:47.676Z,8.1
2017-03-05T06:56:50.386Z,8.1
2017-03-05T06:57:52.837Z,8.1
2017-03-05T06:59:58.190Z,8.1
2017-03-05T07:01:00.631Z,8.1
2017-03-05T07:03:06.766Z,8.1
2017-03-05T07:04:08.708Z,8.1
2017-03-05T07:05:11.495Z,8.1
2017-03-05T07:06:13.953Z,8.1
2017-03-05T07:07:16.397Z,8.1
2017-03-05T07:08:19.430Z,8.1
2017-03-05T07:09:21.911Z,8.1
2017-03-05T07:10:24.370Z,8.1
2017-03-05T07:11:27.321Z,8
2017-03-05T07:12:29.783Z,8.1
2017-03-05T07:13:32.544Z,8
2017-03-05T07:14:34.988Z,8.1
2017-03-05T07:15:37.457Z,8.1
2017-03-05T07:16:40.413Z,8.1
2017-03-05T07:17:42.891Z,8.1
2017-03-05T07:18:46.118Z,8.1
2017-03-05T07:19:48.064Z,8.1
2017-03-05T07:20:51.541Z,8.1
2017-03-05T07:21:53.482Z,8.1
2017-03-05T07:22:55.954Z,8
2017-03-05T07:23:59.176Z,8
2017-03-05T07:26:04.051Z,8
2017-03-05T07:27:06.505Z,8
2017-03-05T07:28:09.454Z,8
2017-03-05T07:29:12.072Z,8
2017-03-05T07:30:14.526Z,8
2017-03-05T07:31:16.977Z,8.1
2017-03-05T07:32:19.781Z,8
2017-03-05T07:33:22.226Z,8
2017-03-05T07:34:25.456Z,8
2017-03-05T07:35:27.269Z,8
2017-03-05T07:36:30.222Z,8
2017-03-05T07:37:33.173Z,8
2017-03-05T07:38:35.621Z,8
2017-03-05T07:39:38.375Z,8
2017-03-05T07:40:40.824Z,8
2017-03-05T07:41:43.279Z,8
2017-03-05T07:42:46.231Z,8
2017-03-05T07:43:49.220Z,8
2017-03-05T07:44:51.474Z,8
2017-03-05T07:45:53.928Z,8
2017-03-05T07:46:56.372Z,8
2017-03-05T07:47:59.854Z,8
2017-03-05T07:49:01.799Z,8
2017-03-05T07:50:05.018Z,8
2017-03-05T07:51:06.971Z,8
2017-03-05T07:52:09.928Z,8
2017-03-05T07:53:12.896Z,8
2017-03-05T07:54:14.861Z,8
2017-03-05T07:55:18.064Z,8
2017-03-05T07:56:20.347Z,8
2017-03-05T07:58:25.722Z,8
2017-03-05T07:59:28.183Z,8
2017-03-05T08:00:30.903Z,8
2017-03-05T08:01:33.363Z,8
2017-03-05T08:02:36.331Z,8
2017-03-05T08:03:38.786Z,8
2017-03-05T08:04:41.247Z,8
2017-03-05T08:05:44.523Z,8
2017-03-05T08:06:46.468Z,8
2017-03-05T08:07:49.422Z,8
2017-03-05T08:09:54.281Z,8.1
2017-03-05T08:10:57.410Z,8.1
2017-03-05T08:11:59.852Z,8.1
2017-03-05T08:13:02.301Z,8.1
2017-03-05T08:14:05.254Z,8.1
2017-03-05T08:15:07.698Z,8.1
2017-03-05T08:16:10.408Z,8.1
2017-03-05T08:17:12.864Z,8.1
2017-03-05T08:18:15.827Z,8.1
2017-03-05T08:19:18.294Z,8.1
2017-03-05T08:20:21.267Z,8.1
2017-03-05T08:21:23.966Z,8.1
2017-03-05T08:22:25.915Z,8.1
2017-03-05T08:23:28.868Z,8.1
2017-03-05T08:24:31.320Z,8.2
2017-03-05T08:25:34.282Z,8.2
2017-03-05T08:26:36.813Z,8.2
2017-03-05T08:27:39.268Z,8.2
2017-03-05T08:28:42.236Z,8.2
2017-03-05T08:29:45.210Z,8.2
2017-03-05T08:30:47.154Z,8.2
2017-03-05T08:31:50.924Z,8.2
2017-03-05T08:33:55.276Z,8.1
2017-03-05T08:34:57.582Z,8.1
2017-03-05T08:36:00.532Z,8.1
2017-03-05T08:37:03.232Z,8.1
2017-03-05T08:38:05.509Z,8.2
2017-03-05T08:39:08.477Z,8.2
2017-03-05T08:40:10.927Z,8.1
2017-03-05T08:41:13.882Z,8.2
2017-03-05T08:42:16.580Z,8.1
2017-03-05T08:43:19.030Z,8.1
2017-03-05T08:44:21.494Z,8.1
2017-03-05T08:45:24.448Z,8.1
2017-03-05T08:46:26.899Z,8.1
2017-03-05T08:47:30.182Z,8.2
2017-03-05T08:48:32.125Z,8.2
2017-03-05T08:49:34.583Z,8.2
2017-03-05T08:50:37.541Z,8.2
2017-03-05T08:51:39.990Z,8.2
2017-03-05T08:52:43.087Z,8.2
2017-03-05T08:53:45.520Z,8.2
2017-03-05T08:54:47.798Z,8.2
2017-03-05T08:55:50.765Z,8.3
2017-03-05T08:56:53.233Z,8.2
2017-03-05T08:57:55.948Z,8.3
2017-03-05T08:58:58.421Z,8.3
2017-03-05T09:00:01.381Z,8.3
2017-03-05T09:01:03.829Z,8.3
2017-03-05T09:02:06.302Z,8.3
2017-03-05T09:03:09.361Z,8.3
2017-03-05T09:04:11.811Z,8.3
2017-03-05T09:05:15.128Z,8.3
2017-03-05T09:06:17.071Z,8.3
2017-03-05T09:07:19.529Z,8.3
2017-03-05T09:08:22.810Z,8.3
2017-03-05T09:09:25.256Z,8.3
2017-03-05T09:10:27.708Z,8.3
2017-03-05T09:11:29.988Z,8.3
2017-03-05T09:12:32.939Z,8.3
2017-03-05T09:13:35.645Z,8.3
2017-03-05T09:14:38.100Z,8.4
2017-03-05T09:15:41.055Z,8.3
2017-03-05T09:16:43.516Z,8.3
2017-03-05T09:17:46.502Z,8.3
2017-03-05T09:18:49.210Z,8.3
2017-03-05T09:19:51.663Z,8.3
2017-03-05T09:20:54.113Z,8.4
2017-03-05T09:21:56.571Z,8.4
2017-03-05T09:22:59.544Z,8.4
2017-03-05T09:24:02.266Z,8.4
2017-03-05T09:25:04.730Z,8.4
2017-03-05T09:26:07.020Z,8.4
2017-03-05T09:27:09.981Z,8.4
2017-03-05T09:28:12.788Z,8.5
2017-03-05T09:29:15.550Z,8.5
2017-03-05T09:30:18.009Z,8.5
2017-03-05T09:31:20.459Z,8.5
2017-03-05T09:32:23.414Z,8.5
2017-03-05T09:33:26.394Z,8.5
2017-03-05T09:34:28.977Z,8.5
2017-03-05T09:35:31.432Z,8.5
2017-03-05T09:37:36.811Z,8.5
2017-03-05T09:38:39.278Z,8.5
2017-03-05T09:39:41.986Z,8.5
2017-03-05T09:40:44.433Z,8.5
2017-03-05T09:41:47.384Z,8.5
2017-03-05T09:42:49.830Z,8.5
2017-03-05T09:43:52.785Z,8.5
2017-03-05T09:44:56.729Z,8.5
2017-03-05T09:45:57.703Z,8.5
2017-03-05T09:47:00.654Z,8.5
2017-03-05T09:48:03.625Z,8.5
2017-03-05T09:49:06.079Z,8.5
2017-03-05T09:50:08.453Z,8.5
2017-03-05T09:51:11.451Z,8.5
2017-03-05T09:52:13.914Z,8.5
2017-03-05T09:53:16.194Z,8.5
2017-03-05T09:55:22.338Z,8.5
2017-03-05T09:56:24.279Z,8.6
2017-03-05T09:57:27.226Z,8.6
2017-03-05T09:58:29.683Z,8.6
2017-03-05T09:59:32.643Z,8.6
2017-03-05T10:00:35.343Z,8.6
2017-03-05T10:01:37.792Z,8.6
2017-03-05T10:02:40.267Z,8.6
2017-03-05T10:03:43.217Z,8.6
2017-03-05T10:04:45.666Z,8.6
2017-03-05T10:05:48.869Z,8.6
2017-03-05T10:06:51.342Z,8.6
2017-03-05T10:07:53.797Z,8.6
2017-03-05T10:08:56.579Z,8.6
2017-03-05T10:09:58.867Z,8.6
2017-03-05T10:11:01.821Z,8.6
2017-03-05T10:12:04.284Z,8.6
2017-03-05T10:13:07.804Z,8.6
2017-03-05T10:14:09.753Z,8.6
2017-03-05T10:15:12.701Z,8.6
2017-03-05T10:16:15.237Z,8.7
2017-03-05T10:17:18.029Z,8.7
2017-03-05T10:18:20.505Z,8.7
2017-03-05T10:19:22.986Z,8.7
2017-03-05T10:20:25.855Z,8.7
2017-03-05T10:21:28.556Z,8.7
2017-03-05T10:22:31.004Z,8.6
2017-03-05T10:23:35.015Z,8.6
2017-03-05T10:24:36.477Z,8.6
2017-03-05T10:25:39.438Z,8.7
2017-03-05T10:26:42.189Z,8.7
2017-03-05T10:27:44.297Z,8.7
2017-03-05T10:28:47.121Z,8.7
2017-03-05T10:29:50.084Z,8.7
2017-03-05T10:30:52.561Z,8.7
2017-03-05T10:31:55.323Z,8.7
2017-03-05T10:32:57.767Z,8.7
2017-03-05T10:34:00.731Z,8.7
2017-03-05T10:35:02.873Z,8.8
2017-03-05T10:36:05.665Z,8.8
2017-03-05T10:37:08.918Z,8.8
2017-03-05T10:38:11.383Z,8.8
2017-03-05T10:39:13.685Z,8.8
2017-03-05T10:40:16.663Z,8.8
2017-03-05T10:41:19.111Z,8.8
2017-03-05T10:43:24.721Z,8.8
2017-03-05T10:44:27.181Z,8.8
2017-03-05T10:45:30.168Z,8.8
2017-03-05T10:46:32.637Z,8.9
2017-03-05T10:47:35.103Z,8.9
2017-03-05T10:48:38.353Z,9
2017-03-05T10:49:40.799Z,9
2017-03-05T10:50:43.092Z,8.9
2017-03-05T10:51:46.048Z,8.9
2017-03-05T10:52:48.499Z,9
2017-03-05T10:53:51.729Z,8.9
2017-03-05T10:54:54.172Z,8.9
2017-03-05T10:55:57.150Z,9
2017-03-05T10:56:59.607Z,8.9
2017-03-05T10:58:02.057Z,8.9
2017-03-05T10:59:05.300Z,8.9
2017-03-05T11:00:07.270Z,8.9
2017-03-05T11:01:10.236Z,9
2017-03-05T11:02:12.697Z,8.9
2017-03-05T11:03:15.648Z,9
2017-03-05T11:04:18.354Z,9
2017-03-05T11:05:20.798Z,9
2017-03-05T11:06:23.591Z,9
2017-03-05T11:07:26.062Z,9
2017-03-05T11:08:29.021Z,9
2017-03-05T11:09:31.739Z,8.9
2017-03-05T11:10:34.190Z,9
2017-03-05T11:11:37.169Z,9
2017-03-05T11:12:39.630Z,9
2017-03-05T11:13:42.088Z,9
2017-03-05T11:14:45.316Z,9
2017-03-05T11:15:47.774Z,9
2017-03-05T11:16:50.222Z,9
2017-03-05T11:17:53.206Z,9
2017-03-05T11:18:55.663Z,9.1
2017-03-05T11:19:58.371Z,9.1
2017-03-05T11:22:04.247Z,9.1
2017-03-05T11:23:06.215Z,10
2017-03-05T11:24:09.165Z,10.6
2017-03-05T11:25:12.392Z,11
2017-03-05T11:26:14.331Z,11.3
2017-03-05T11:27:17.128Z,11.5
2017-03-05T11:28:19.588Z,11.8
2017-03-05T11:29:22.393Z,12
2017-03-05T11:30:25.651Z,12.1
2017-03-05T11:31:28.096Z,12.1
2017-03-05T11:32:30.551Z,12.2
2017-03-05T11:33:32.996Z,12.3
2017-03-05T11:34:36.472Z,12.3
2017-03-05T11:35:38.677Z,12.3
2017-03-05T11:36:41.124Z,12.2
2017-03-05T11:37:44.075Z,12.1
2017-03-05T11:38:46.532Z,12
2017-03-05T11:39:49.502Z,12
2017-03-05T11:40:52.257Z,12
2017-03-05T11:41:54.717Z,12.1
2017-03-05T11:42:57.690Z,12.3
2017-03-05T11:44:00.139Z,12.4
2017-03-05T11:45:02.923Z,12.4
2017-03-05T11:46:05.472Z,12.3
2017-03-05T11:47:08.451Z,12.3
2017-03-05T11:48:10.748Z,12.3
2017-03-05T11:49:13.533Z,12.2
2017-03-05T11:50:16.493Z,12.2
2017-03-05T11:51:19.199Z,12.2
2017-03-05T11:52:21.500Z,12.2
2017-03-05T11:53:24.464Z,12.3
2017-03-05T11:54:26.755Z,12.3
2017-03-05T11:55:29.715Z,12.4
2017-03-05T11:56:33.517Z,12.5
2017-03-05T11:57:34.958Z,12.5
2017-03-05T11:58:37.915Z,12.5
2017-03-05T11:59:40.365Z,12.5
2017-03-05T12:00:43.326Z,12.5
2017-03-05T12:01:45.881Z,12.5
2017-03-05T12:02:49.359Z,12.6
2017-03-05T12:03:51.325Z,12.5
2017-03-05T12:04:54.276Z,12.5
2017-03-05T12:05:56.734Z,12.5
2017-03-05T12:06:59.462Z,12.5
2017-03-05T12:08:01.913Z,12.3
2017-03-05T12:09:04.865Z,12.3
2017-03-05T12:10:07.381Z,12.2
2017-03-05T12:12:12.989Z,12.1
2017-03-05T12:13:15.770Z,12
2017-03-05T12:14:18.046Z,12
2017-03-05T12:15:20.998Z,11.9
2017-03-05T12:16:23.487Z,11.8
2017-03-05T12:17:26.721Z,11.8
2017-03-05T12:18:29.165Z,11.8
2017-03-05T12:19:31.616Z,11.7
2017-03-05T12:20:34.580Z,11.7
2017-03-05T12:21:37.022Z,11.7
2017-03-05T12:22:40.059Z,11.7
2017-03-05T12:24:45.415Z,11.8
2017-03-05T12:25:47.887Z,11.7
2017-03-05T12:26:50.838Z,11.8
2017-03-05T12:27:53.544Z,11.6
2017-03-05T12:29:58.941Z,11.6
2017-03-05T12:32:04.311Z,12
2017-03-05T12:35:12.853Z,12.5
2017-03-05T12:36:14.798Z,12.6
2017-03-05T12:37:17.786Z,12.6
2017-03-05T12:38:20.240Z,12.5
2017-03-05T12:39:23.261Z,12.6
2017-03-05T12:40:26.024Z,12.6
2017-03-05T12:41:28.468Z,12.7
2017-03-05T12:42:30.809Z,12.7
2017-03-05T12:43:33.785Z,12.5
2017-03-05T12:44:36.736Z,12.3
2017-03-05T12:46:42.418Z,12.2
2017-03-05T12:47:44.358Z,12.1
2017-03-05T12:48:47.333Z,12.1
2017-03-05T12:49:49.779Z,12.1
2017-03-05T12:50:52.734Z,12.1
2017-03-05T12:51:55.427Z,12.1
2017-03-05T12:52:57.885Z,12.1
2017-03-05T12:55:03.410Z,12.2
2017-03-05T12:56:06.237Z,12.3
2017-03-05T12:57:08.988Z,12.4
2017-03-05T12:58:11.306Z,12.4
2017-03-05T12:59:14.160Z,12.5
2017-03-05T13:00:16.962Z,12.5
2017-03-05T13:02:22.623Z,12.5
2017-03-05T13:03:25.084Z,12.5
2017-03-05T13:04:28.036Z,12.6
2017-03-05T13:05:30.344Z,12.6
2017-03-05T13:06:33.296Z,12.6
2017-03-05T13:07:36.338Z,12.6
2017-03-05T13:08:38.801Z,12.4
2017-03-05T13:09:41.293Z,12.3
2017-03-05T13:10:44.243Z,12.3
2017-03-05T13:11:46.721Z,12.3
2017-03-05T13:12:49.495Z,12.4
2017-03-05T13:13:51.970Z,12.3
2017-03-05T13:14:54.955Z,12.3
2017-03-05T13:15:57.420Z,12.3
2017-03-05T13:17:00.373Z,12.3
2017-03-05T13:18:03.105Z,12.3
2017-03-05T13:19:05.579Z,12.3
2017-03-05T13:21:10.796Z,12.3
2017-03-05T13:22:13.778Z,12.2
2017-03-05T13:23:16.491Z,12.1
2017-03-05T13:24:18.937Z,12
2017-03-05T13:25:21.888Z,11.9
2017-03-05T13:26:24.336Z,11.8
2017-03-05T13:27:27.289Z,11.7
2017-03-05T13:28:29.986Z,11.6
2017-03-05T13:29:32.296Z,11.5
2017-03-05T13:30:35.245Z,11.5
2017-03-05T13:31:38.194Z,11.4
2017-03-05T13:32:41.159Z,11.4
2017-03-05T13:33:43.857Z,11.3
2017-03-05T13:34:46.310Z,11.3
2017-03-05T13:35:48.766Z,11.4
2017-03-05T13:36:51.547Z,11.5
2017-03-05T13:37:53.841Z,11.6
2017-03-05T13:38:57.093Z,11.8
2017-03-05T13:39:59.564Z,12
2017-03-05T13:41:02.520Z,12.1
2017-03-05T13:42:04.983Z,12.3
2017-03-05T13:43:07.935Z,12.3
2017-03-05T13:44:10.638Z,12.3
2017-03-05T13:45:12.923Z,12.5
2017-03-05T13:46:15.880Z,12.5
2017-03-05T13:47:18.326Z,12.4
2017-03-05T13:48:21.301Z,12.3
2017-03-05T13:49:24.002Z,12.1
2017-03-05T13:50:26.456Z,12
2017-03-05T13:51:31.478Z,12
2017-03-05T13:52:31.929Z,11.9
2017-03-05T13:53:34.901Z,11.8
2017-03-05T13:54:37.597Z,11.8
2017-03-05T13:55:40.039Z,11.7
2017-03-05T13:56:42.992Z,11.6
2017-03-05T13:57:45.274Z,11.5
2017-03-05T13:58:48.222Z,11.5
2017-03-05T13:59:50.920Z,11.4
2017-03-05T14:00:53.388Z,11.4
2017-03-05T14:01:56.373Z,11.4
2017-03-05T14:02:58.852Z,11.4
2017-03-05T14:04:01.829Z,11.5
2017-03-05T14:05:04.555Z,11.5
2017-03-05T14:06:07.024Z,11.6
2017-03-05T14:07:09.820Z,11.6
2017-03-05T14:08:12.106Z,11.6
2017-03-05T14:09:15.095Z,11.7
2017-03-05T14:10:18.357Z,11.7
2017-03-05T14:11:20.300Z,11.7
2017-03-05T14:12:23.254Z,11.7
2017-03-05T14:13:25.708Z,11.7
2017-03-05T14:14:28.669Z,11.7
2017-03-05T14:15:31.409Z,11.7
2017-03-05T14:16:33.696Z,11.7
2017-03-05T14:17:36.483Z,11.6
2017-03-05T14:18:39.456Z,11.5
2017-03-05T14:19:41.902Z,11.4
2017-03-05T14:20:45.104Z,11.3
2017-03-05T14:21:47.565Z,11.3
2017-03-05T14:22:50.035Z,11.3
2017-03-05T14:23:52.982Z,11.3
2017-03-05T14:24:55.442Z,11.3
2017-03-05T14:25:58.659Z,11.3
2017-03-05T14:27:01.120Z,11.3
2017-03-05T14:28:03.585Z,11.3
2017-03-05T14:29:06.546Z,11.3
2017-03-05T14:30:08.998Z,11.3
2017-03-05T14:31:12.268Z,11.3
2017-03-05T14:32:14.059Z,11.3
2017-03-05T14:33:16.849Z,11.2
2017-03-05T14:34:19.820Z,11.1
2017-03-05T14:35:22.300Z,11.1
2017-03-05T14:36:25.507Z,11.1
2017-03-05T14:37:27.953Z,11.1
2017-03-05T14:38:30.417Z,11.1
2017-03-05T14:39:33.214Z,11.1
2017-03-05T14:40:36.167Z,11.1
2017-03-05T14:41:38.891Z,11.1
2017-03-05T14:42:41.358Z,11.1
2017-03-05T14:43:43.828Z,11.1
2017-03-05T14:44:46.775Z,11.1
2017-03-05T14:45:49.231Z,11.1
2017-03-05T14:46:52.431Z,11
2017-03-05T14:47:54.882Z,11
2017-03-05T14:48:57.326Z,11
2017-03-05T14:50:00.284Z,11.1
2017-03-05T14:51:02.740Z,11.1
2017-03-05T14:52:05.778Z,11.1
2017-03-05T14:53:08.227Z,11
2017-03-05T14:54:10.677Z,11
2017-03-05T14:55:13.629Z,10.8
2017-03-05T14:56:16.103Z,10.8
2017-03-05T14:57:19.312Z,10.8
2017-03-05T14:58:21.608Z,10.8
2017-03-05T14:59:24.554Z,10.6
2017-03-05T15:01:29.907Z,10.5
2017-03-05T15:02:32.607Z,10.5